sensor_id;sensor_type;location;lat;lon;timestamp;P1;durP1;ratioP1;P2;durP2;ratioP2
64351;SDS011;50680;52.626;-8.668;2023-12-20T11:20:37;68.28;;;19.45;;
64351;SDS011;50680;52.626;-8.668;2023-12-20T11:23:09;65.82;;;16.73;;
64351;SDS011;50680;52.626;-8.668;2023-12-20T11:25:49;73.13;;;17.17;;
64351;SDS011;50680;52.626;-8.668;2023-12-20T11:28:22;68.40;;;16.25;;
64351;SDS011;50680;52.626;-8.668;2023-12-20T11:30:54;63.47;;;17.38;;
64351;SDS011;50680;52.626;-8.668;2023-12-20T11:33:23;55.88;;;15.30;;
64351;SDS011;50680;52.626;-8.668;2023-12-20T11:35:56;62.35;;;15.05;;
64351;SDS011;50680;52.626;-8.668;2023-12-20T11:38:24;61.67;;;15.13;;
64351;SDS011;50680;52.626;-8.668;2023-12-20T11:40:51;55.13;;;15.60;;
64351;SDS011;50680;52.626;-8.668;2023-12-20T11:43:30;64.30;;;15.55;;
64351;SDS011;50680;52.626;-8.668;2023-12-20T11:46:02;52.47;;;13.38;;
64351;SDS011;50680;52.626;-8.668;2023-12-20T11:48:34;58.95;;;14.52;;
64351;SDS011;50680;52.626;-8.668;2023-12-20T11:51:02;58.50;;;14.75;;
64351;SDS011;50680;52.626;-8.668;2023-12-20T11:53:35;61.47;;;13.95;;
64351;SDS011;50680;52.626;-8.668;2023-12-20T11:56:04;62.30;;;14.55;;
64351;SDS011;50680;52.626;-8.668;2023-12-20T11:58:33;58.75;;;13.48;;
64351;SDS011;50680;52.626;-8.668;2023-12-20T12:01:00;58.28;;;12.57;;
64351;SDS011;50680;52.626;-8.668;2023-12-20T12:03:29;55.50;;;13.55;;
64351;SDS011;50680;52.626;-8.668;2023-12-20T12:05:57;58.28;;;13.82;;
64351;SDS011;50680;52.626;-8.668;2023-12-20T12:08:24;60.17;;;13.52;;
64351;SDS011;50680;52.626;-8.668;2023-12-20T12:10:52;58.13;;;12.77;;
64351;SDS011;50680;52.626;-8.668;2023-12-20T12:13:26;71.35;;;13.20;;
64351;SDS011;50680;52.626;-8.668;2023-12-20T12:16:00;58.08;;;13.43;;
64351;SDS011;50680;52.626;-8.668;2023-12-20T12:18:33;60.88;;;14.75;;
64351;SDS011;50680;52.626;-8.668;2023-12-20T12:21:08;59.50;;;12.75;;
64351;SDS011;50680;52.626;-8.668;2023-12-20T12:23:48;56.33;;;12.50;;
64351;SDS011;50680;52.626;-8.668;2023-12-20T12:26:15;61.45;;;12.50;;
64351;SDS011;50680;52.626;-8.668;2023-12-20T12:28:44;51.15;;;12.65;;
64351;SDS011;50680;52.626;-8.668;2023-12-20T12:31:14;60.28;;;11.90;;
64351;SDS011;50680;52.626;-8.668;2023-12-20T12:33:44;59.88;;;12.77;;
64351;SDS011;50680;52.626;-8.668;2023-12-20T12:36:12;56.55;;;12.50;;
64351;SDS011;50680;52.626;-8.668;2023-12-20T12:38:42;64.45;;;12.80;;
64351;SDS011;50680;52.626;-8.668;2023-12-20T12:41:09;53.80;;;13.38;;
64351;SDS011;50680;52.626;-8.668;2023-12-20T12:43:37;56.53;;;13.32;;
64351;SDS011;50680;52.626;-8.668;2023-12-20T12:46:04;58.60;;;13.23;;
64351;SDS011;50680;52.626;-8.668;2023-12-20T12:48:31;58.78;;;13.50;;
64351;SDS011;50680;52.626;-8.668;2023-12-20T12:50:58;59.35;;;14.75;;
64351;SDS011;50680;52.626;-8.668;2023-12-20T12:53:25;55.13;;;12.95;;
64351;SDS011;50680;52.626;-8.668;2023-12-20T12:55:53;54.33;;;10.98;;
64351;SDS011;50680;52.626;-8.668;2023-12-20T12:58:21;55.65;;;13.00;;
64351;SDS011;50680;52.626;-8.668;2023-12-20T13:00:48;56.05;;;12.73;;
64351;SDS011;50680;52.626;-8.668;2023-12-20T13:03:15;47.65;;;11.52;;
64351;SDS011;50680;52.626;-8.668;2023-12-20T13:05:42;54.83;;;12.57;;
64351;SDS011;50680;52.626;-8.668;2023-12-20T13:08:12;54.13;;;13.02;;
64351;SDS011;50680;52.626;-8.668;2023-12-20T13:10:40;55.67;;;12.13;;
64351;SDS011;50680;52.626;-8.668;2023-12-20T13:13:07;54.80;;;11.30;;
64351;SDS011;50680;52.626;-8.668;2023-12-20T13:15:34;52.15;;;11.70;;
64351;SDS011;50680;52.626;-8.668;2023-12-20T13:18:01;41.40;;;9.98;;
64351;SDS011;50680;52.626;-8.668;2023-12-20T13:20:28;40.45;;;10.10;;
64351;SDS011;50680;52.626;-8.668;2023-12-20T13:22:55;42.40;;;9.80;;
64351;SDS011;50680;52.626;-8.668;2023-12-20T13:25:22;40.65;;;9.70;;
64351;SDS011;50680;52.626;-8.668;2023-12-20T13:27:49;40.25;;;9.75;;
64351;SDS011;50680;52.626;-8.668;2023-12-20T13:30:16;41.55;;;10.02;;
64351;SDS011;50680;52.626;-8.668;2023-12-20T13:32:43;41.53;;;9.50;;
64351;SDS011;50680;52.626;-8.668;2023-12-20T13:35:10;44.45;;;9.23;;
64351;SDS011;50680;52.626;-8.668;2023-12-20T13:37:38;41.25;;;9.63;;
64351;SDS011;50680;52.626;-8.668;2023-12-20T13:40:05;38.58;;;8.75;;
64351;SDS011;50680;52.626;-8.668;2023-12-20T13:42:33;38.08;;;9.05;;
64351;SDS011;50680;52.626;-8.668;2023-12-20T13:45:00;42.17;;;9.50;;
64351;SDS011;50680;52.626;-8.668;2023-12-20T13:47:28;39.28;;;8.35;;
64351;SDS011;50680;52.626;-8.668;2023-12-20T13:49:55;35.15;;;8.68;;
64351;SDS011;50680;52.626;-8.668;2023-12-20T13:52:22;29.92;;;8.13;;
64351;SDS011;50680;52.626;-8.668;2023-12-20T13:54:49;30.10;;;7.18;;
64351;SDS011;50680;52.626;-8.668;2023-12-20T13:57:16;29.52;;;7.32;;
64351;SDS011;50680;52.626;-8.668;2023-12-20T13:59:46;27.77;;;6.93;;
64351;SDS011;50680;52.626;-8.668;2023-12-20T14:02:14;29.85;;;7.75;;
64351;SDS011;50680;52.626;-8.668;2023-12-20T14:04:42;34.67;;;8.80;;
64351;SDS011;50680;52.626;-8.668;2023-12-20T14:07:10;38.20;;;10.38;;
64351;SDS011;50680;52.626;-8.668;2023-12-20T14:09:39;30.65;;;9.40;;
64351;SDS011;50680;52.626;-8.668;2023-12-20T14:12:12;39.50;;;11.35;;
64351;SDS011;50680;52.626;-8.668;2023-12-20T14:14:39;39.33;;;11.20;;
64351;SDS011;50680;52.626;-8.668;2023-12-20T14:17:06;28.77;;;8.95;;
64351;SDS011;50680;52.626;-8.668;2023-12-20T14:19:33;31.27;;;9.30;;
64351;SDS011;50680;52.626;-8.668;2023-12-20T14:22:00;35.90;;;8.05;;
64351;SDS011;50680;52.626;-8.668;2023-12-20T14:24:28;36.15;;;8.15;;
64351;SDS011;50680;52.626;-8.668;2023-12-20T14:27:05;28.50;;;8.35;;
64351;SDS011;50680;52.626;-8.668;2023-12-20T14:29:39;29.17;;;8.27;;
64351;SDS011;50680;52.626;-8.668;2023-12-20T14:32:06;32.38;;;7.07;;
64351;SDS011;50680;52.626;-8.668;2023-12-20T14:34:33;32.92;;;7.32;;
64351;SDS011;50680;52.626;-8.668;2023-12-20T14:37:01;29.10;;;7.38;;
64351;SDS011;50680;52.626;-8.668;2023-12-20T14:39:28;35.13;;;7.85;;
64351;SDS011;50680;52.626;-8.668;2023-12-20T14:41:54;27.92;;;7.00;;
64351;SDS011;50680;52.626;-8.668;2023-12-20T14:44:22;30.30;;;7.93;;
64351;SDS011;50680;52.626;-8.668;2023-12-20T14:46:48;29.13;;;6.95;;
64351;SDS011;50680;52.626;-8.668;2023-12-20T14:49:15;36.25;;;7.40;;
64351;SDS011;50680;52.626;-8.668;2023-12-20T14:51:43;23.52;;;6.70;;
64351;SDS011;50680;52.626;-8.668;2023-12-20T14:54:10;28.85;;;6.97;;
64351;SDS011;50680;52.626;-8.668;2023-12-20T14:56:37;33.20;;;7.30;;
64351;SDS011;50680;52.626;-8.668;2023-12-20T14:59:04;33.47;;;7.97;;
64351;SDS011;50680;52.626;-8.668;2023-12-20T15:01:31;35.40;;;7.72;;
64351;SDS011;50680;52.626;-8.668;2023-12-20T15:03:58;29.77;;;7.50;;
64351;SDS011;50680;52.626;-8.668;2023-12-20T15:06:25;42.78;;;8.30;;
64351;SDS011;50680;52.626;-8.668;2023-12-20T15:08:52;36.83;;;8.50;;
64351;SDS011;50680;52.626;-8.668;2023-12-20T15:11:19;37.22;;;8.30;;
64351;SDS011;50680;52.626;-8.668;2023-12-20T15:13:46;34.72;;;7.97;;
64351;SDS011;50680;52.626;-8.668;2023-12-20T15:16:20;29.13;;;7.13;;
64351;SDS011;50680;52.626;-8.668;2023-12-20T15:21:21;36.00;;;7.72;;
64351;SDS011;50680;52.626;-8.668;2023-12-20T15:23:56;27.30;;;7.07;;
64351;SDS011;50680;52.626;-8.668;2023-12-20T15:26:32;33.55;;;7.10;;
64351;SDS011;50680;52.626;-8.668;2023-12-20T15:29:00;28.95;;;6.75;;
64351;SDS011;50680;52.626;-8.668;2023-12-20T15:31:27;29.02;;;7.50;;
64351;SDS011;50680;52.626;-8.668;2023-12-20T15:33:54;32.40;;;7.50;;
64351;SDS011;50680;52.626;-8.668;2023-12-20T15:36:21;25.20;;;6.22;;
64351;SDS011;50680;52.626;-8.668;2023-12-20T15:38:49;28.88;;;7.15;;
64351;SDS011;50680;52.626;-8.668;2023-12-20T15:41:19;26.48;;;7.10;;
64351;SDS011;50680;52.626;-8.668;2023-12-20T15:43:47;34.38;;;6.80;;
64351;SDS011;50680;52.626;-8.668;2023-12-20T15:46:14;27.85;;;6.60;;
64351;SDS011;50680;52.626;-8.668;2023-12-20T15:48:41;30.23;;;7.55;;
64351;SDS011;50680;52.626;-8.668;2023-12-20T15:51:09;30.42;;;7.00;;
64351;SDS011;50680;52.626;-8.668;2023-12-20T15:53:36;33.42;;;7.65;;
64351;SDS011;50680;52.626;-8.668;2023-12-20T15:56:03;32.35;;;7.05;;
64351;SDS011;50680;52.626;-8.668;2023-12-20T15:58:32;25.85;;;6.13;;
64351;SDS011;50680;52.626;-8.668;2023-12-20T16:01:12;23.67;;;5.63;;
64351;SDS011;50680;52.626;-8.668;2023-12-20T16:03:54;19.30;;;5.72;;
64351;SDS011;50680;52.626;-8.668;2023-12-20T16:06:25;20.13;;;5.97;;
64351;SDS011;50680;52.626;-8.668;2023-12-20T16:08:52;29.52;;;6.63;;
64351;SDS011;50680;52.626;-8.668;2023-12-20T16:11:20;23.83;;;5.68;;
64351;SDS011;50680;52.626;-8.668;2023-12-20T16:13:47;26.98;;;6.22;;
64351;SDS011;50680;52.626;-8.668;2023-12-20T16:16:14;22.90;;;5.78;;
64351;SDS011;50680;52.626;-8.668;2023-12-20T16:18:41;22.27;;;5.60;;
64351;SDS011;50680;52.626;-8.668;2023-12-20T16:21:08;20.25;;;5.57;;
64351;SDS011;50680;52.626;-8.668;2023-12-20T16:23:35;22.40;;;6.00;;
64351;SDS011;50680;52.626;-8.668;2023-12-20T16:26:02;27.02;;;6.38;;
64351;SDS011;50680;52.626;-8.668;2023-12-20T16:28:29;26.70;;;7.90;;
64351;SDS011;50680;52.626;-8.668;2023-12-20T16:30:56;24.35;;;6.65;;
64351;SDS011;50680;52.626;-8.668;2023-12-20T16:33:23;33.75;;;7.53;;
64351;SDS011;50680;52.626;-8.668;2023-12-20T16:35:50;33.42;;;9.82;;
64351;SDS011;50680;52.626;-8.668;2023-12-20T16:38:17;35.03;;;9.32;;
64351;SDS011;50680;52.626;-8.668;2023-12-20T16:40:44;32.85;;;12.27;;
64351;SDS011;50680;52.626;-8.668;2023-12-20T16:43:11;33.47;;;11.13;;
64351;SDS011;50680;52.626;-8.668;2023-12-20T16:45:38;33.80;;;11.80;;
64351;SDS011;50680;52.626;-8.668;2023-12-20T16:48:05;30.02;;;9.52;;
64351;SDS011;50680;52.626;-8.668;2023-12-20T16:50:32;31.65;;;8.07;;
64351;SDS011;50680;52.626;-8.668;2023-12-20T16:52:59;23.67;;;7.88;;
64351;SDS011;50680;52.626;-8.668;2023-12-20T16:55:26;36.85;;;9.20;;
64351;SDS011;50680;52.626;-8.668;2023-12-20T16:57:53;28.92;;;8.93;;
64351;SDS011;50680;52.626;-8.668;2023-12-20T17:00:20;27.35;;;7.13;;
64351;SDS011;50680;52.626;-8.668;2023-12-20T17:02:49;34.33;;;6.90;;
64351;SDS011;50680;52.626;-8.668;2023-12-20T17:05:17;23.88;;;6.00;;
64351;SDS011;50680;52.626;-8.668;2023-12-20T17:07:45;25.52;;;6.63;;
64351;SDS011;50680;52.626;-8.668;2023-12-20T17:10:12;22.52;;;6.05;;
64351;SDS011;50680;52.626;-8.668;2023-12-20T17:12:39;25.90;;;6.03;;
64351;SDS011;50680;52.626;-8.668;2023-12-20T17:15:06;22.20;;;6.03;;
64351;SDS011;50680;52.626;-8.668;2023-12-20T17:17:33;18.35;;;5.47;;
64351;SDS011;50680;52.626;-8.668;2023-12-20T17:20:00;19.38;;;5.82;;
64351;SDS011;50680;52.626;-8.668;2023-12-20T17:22:28;17.38;;;5.15;;
64351;SDS011;50680;52.626;-8.668;2023-12-20T17:24:55;22.92;;;6.18;;
64351;SDS011;50680;52.626;-8.668;2023-12-20T17:27:22;23.90;;;5.65;;
64351;SDS011;50680;52.626;-8.668;2023-12-20T17:29:49;21.80;;;5.30;;
64351;SDS011;50680;52.626;-8.668;2023-12-20T17:32:16;23.55;;;4.85;;
64351;SDS011;50680;52.626;-8.668;2023-12-20T17:34:43;19.77;;;4.60;;
64351;SDS011;50680;52.626;-8.668;2023-12-20T17:37:10;21.52;;;5.10;;
64351;SDS011;50680;52.626;-8.668;2023-12-20T17:39:37;18.25;;;5.22;;
64351;SDS011;50680;52.626;-8.668;2023-12-20T17:42:12;18.15;;;5.22;;
64351;SDS011;50680;52.626;-8.668;2023-12-20T17:45:43;21.38;;;4.55;;
64351;SDS011;50680;52.626;-8.668;2023-12-20T17:48:10;15.63;;;4.35;;
64351;SDS011;50680;52.626;-8.668;2023-12-20T17:50:37;21.67;;;4.50;;
64351;SDS011;50680;52.626;-8.668;2023-12-20T17:53:04;20.67;;;4.60;;
64351;SDS011;50680;52.626;-8.668;2023-12-20T17:55:31;16.85;;;4.32;;
64351;SDS011;50680;52.626;-8.668;2023-12-20T17:57:59;19.30;;;4.68;;
64351;SDS011;50680;52.626;-8.668;2023-12-20T18:00:27;16.45;;;4.45;;
64351;SDS011;50680;52.626;-8.668;2023-12-20T18:05:24;16.98;;;4.20;;
64351;SDS011;50680;52.626;-8.668;2023-12-20T18:07:51;17.58;;;4.25;;
64351;SDS011;50680;52.626;-8.668;2023-12-20T18:10:19;13.98;;;4.13;;
64351;SDS011;50680;52.626;-8.668;2023-12-20T18:12:46;17.50;;;5.05;;
64351;SDS011;50680;52.626;-8.668;2023-12-20T18:15:14;11.35;;;3.22;;
64351;SDS011;50680;52.626;-8.668;2023-12-20T18:17:41;14.80;;;4.60;;
64351;SDS011;50680;52.626;-8.668;2023-12-20T18:20:08;15.27;;;4.30;;
64351;SDS011;50680;52.626;-8.668;2023-12-20T18:22:36;17.70;;;4.32;;
64351;SDS011;50680;52.626;-8.668;2023-12-20T18:25:07;21.13;;;5.78;;
64351;SDS011;50680;52.626;-8.668;2023-12-20T18:27:35;18.63;;;5.10;;
64351;SDS011;50680;52.626;-8.668;2023-12-20T18:30:02;19.05;;;4.82;;
64351;SDS011;50680;52.626;-8.668;2023-12-20T18:32:42;20.50;;;5.28;;
64351;SDS011;50680;52.626;-8.668;2023-12-20T18:35:09;15.13;;;4.65;;
64351;SDS011;50680;52.626;-8.668;2023-12-20T18:37:37;15.23;;;4.72;;
64351;SDS011;50680;52.626;-8.668;2023-12-20T18:40:06;21.50;;;6.20;;
64351;SDS011;50680;52.626;-8.668;2023-12-20T18:42:34;15.95;;;4.55;;
64351;SDS011;50680;52.626;-8.668;2023-12-20T18:45:01;16.30;;;5.20;;
64351;SDS011;50680;52.626;-8.668;2023-12-20T18:47:30;19.17;;;5.00;;
64351;SDS011;50680;52.626;-8.668;2023-12-20T18:49:57;18.83;;;5.28;;
64351;SDS011;50680;52.626;-8.668;2023-12-20T18:52:28;16.52;;;4.90;;
64351;SDS011;50680;52.626;-8.668;2023-12-20T18:54:55;19.23;;;4.90;;
64351;SDS011;50680;52.626;-8.668;2023-12-20T18:57:22;17.75;;;5.38;;
64351;SDS011;50680;52.626;-8.668;2023-12-20T18:59:49;17.83;;;5.35;;
64351;SDS011;50680;52.626;-8.668;2023-12-20T19:02:16;23.73;;;6.35;;
64351;SDS011;50680;52.626;-8.668;2023-12-20T19:04:43;20.85;;;5.95;;
64351;SDS011;50680;52.626;-8.668;2023-12-20T19:07:12;21.35;;;5.78;;
64351;SDS011;50680;52.626;-8.668;2023-12-20T19:09:38;17.38;;;5.53;;
64351;SDS011;50680;52.626;-8.668;2023-12-20T19:12:05;21.75;;;6.10;;
64351;SDS011;50680;52.626;-8.668;2023-12-20T19:14:32;22.73;;;5.85;;
64351;SDS011;50680;52.626;-8.668;2023-12-20T19:17:00;18.75;;;5.80;;
64351;SDS011;50680;52.626;-8.668;2023-12-20T19:19:28;23.27;;;5.40;;
64351;SDS011;50680;52.626;-8.668;2023-12-20T19:21:55;25.60;;;6.53;;
64351;SDS011;50680;52.626;-8.668;2023-12-20T19:24:22;23.75;;;6.05;;
64351;SDS011;50680;52.626;-8.668;2023-12-20T19:26:49;30.30;;;7.57;;
64351;SDS011;50680;52.626;-8.668;2023-12-20T19:29:16;28.02;;;6.88;;
64351;SDS011;50680;52.626;-8.668;2023-12-20T19:31:43;35.30;;;7.85;;
64351;SDS011;50680;52.626;-8.668;2023-12-20T19:34:10;31.85;;;7.57;;
64351;SDS011;50680;52.626;-8.668;2023-12-20T19:36:37;32.47;;;7.60;;
64351;SDS011;50680;52.626;-8.668;2023-12-20T19:39:03;37.70;;;8.30;;
64351;SDS011;50680;52.626;-8.668;2023-12-20T19:41:30;33.67;;;7.22;;
64351;SDS011;50680;52.626;-8.668;2023-12-20T19:43:58;28.27;;;7.38;;
64351;SDS011;50680;52.626;-8.668;2023-12-20T19:46:25;29.45;;;8.20;;
64351;SDS011;50680;52.626;-8.668;2023-12-20T19:48:52;29.55;;;7.20;;
64351;SDS011;50680;52.626;-8.668;2023-12-20T19:51:19;32.63;;;7.40;;
64351;SDS011;50680;52.626;-8.668;2023-12-20T19:53:47;27.98;;;7.38;;
64351;SDS011;50680;52.626;-8.668;2023-12-20T19:56:14;30.25;;;7.20;;
64351;SDS011;50680;52.626;-8.668;2023-12-20T19:58:41;29.95;;;7.55;;
64351;SDS011;50680;52.626;-8.668;2023-12-20T20:01:07;27.77;;;6.45;;
64351;SDS011;50680;52.626;-8.668;2023-12-20T20:03:34;26.50;;;6.68;;
64351;SDS011;50680;52.626;-8.668;2023-12-20T20:06:01;25.65;;;6.57;;
64351;SDS011;50680;52.626;-8.668;2023-12-20T20:08:29;23.30;;;5.97;;
64351;SDS011;50680;52.626;-8.668;2023-12-20T20:10:56;23.13;;;5.70;;
64351;SDS011;50680;52.626;-8.668;2023-12-20T20:13:22;21.90;;;7.15;;
64351;SDS011;50680;52.626;-8.668;2023-12-20T20:15:49;22.52;;;6.10;;
64351;SDS011;50680;52.626;-8.668;2023-12-20T20:18:16;21.48;;;6.32;;
64351;SDS011;50680;52.626;-8.668;2023-12-20T20:20:46;19.05;;;5.50;;
64351;SDS011;50680;52.626;-8.668;2023-12-20T20:23:13;15.73;;;5.75;;
64351;SDS011;50680;52.626;-8.668;2023-12-20T20:25:40;17.42;;;5.82;;
64351;SDS011;50680;52.626;-8.668;2023-12-20T20:28:07;19.48;;;5.82;;
64351;SDS011;50680;52.626;-8.668;2023-12-20T20:30:34;16.15;;;5.78;;
64351;SDS011;50680;52.626;-8.668;2023-12-20T20:33:01;22.52;;;6.18;;
64351;SDS011;50680;52.626;-8.668;2023-12-20T20:35:29;21.88;;;6.03;;
64351;SDS011;50680;52.626;-8.668;2023-12-20T20:37:56;22.42;;;6.28;;
64351;SDS011;50680;52.626;-8.668;2023-12-20T20:40:23;23.55;;;6.25;;
64351;SDS011;50680;52.626;-8.668;2023-12-20T20:42:50;27.85;;;6.82;;
64351;SDS011;50680;52.626;-8.668;2023-12-20T20:45:17;24.52;;;7.25;;
64351;SDS011;50680;52.626;-8.668;2023-12-20T20:47:44;29.60;;;6.95;;
64351;SDS011;50680;52.626;-8.668;2023-12-20T20:50:12;23.58;;;5.95;;
64351;SDS011;50680;52.626;-8.668;2023-12-20T20:52:39;31.45;;;7.72;;
64351;SDS011;50680;52.626;-8.668;2023-12-20T20:55:06;23.85;;;6.07;;
64351;SDS011;50680;52.626;-8.668;2023-12-20T20:57:33;24.30;;;6.13;;
64351;SDS011;50680;52.626;-8.668;2023-12-20T21:00:00;21.40;;;6.57;;
64351;SDS011;50680;52.626;-8.668;2023-12-20T21:02:27;24.90;;;5.57;;
64351;SDS011;50680;52.626;-8.668;2023-12-20T21:04:55;26.55;;;6.93;;
64351;SDS011;50680;52.626;-8.668;2023-12-20T21:07:24;25.88;;;6.75;;
64351;SDS011;50680;52.626;-8.668;2023-12-20T21:09:52;25.08;;;8.27;;
64351;SDS011;50680;52.626;-8.668;2023-12-20T21:12:24;30.92;;;9.63;;
64351;SDS011;50680;52.626;-8.668;2023-12-20T21:14:54;22.85;;;6.70;;
64351;SDS011;50680;52.626;-8.668;2023-12-20T21:17:23;26.73;;;7.38;;
64351;SDS011;50680;52.626;-8.668;2023-12-20T21:19:50;23.30;;;6.50;;
64351;SDS011;50680;52.626;-8.668;2023-12-20T21:22:17;28.75;;;7.50;;
64351;SDS011;50680;52.626;-8.668;2023-12-20T21:24:44;30.83;;;8.13;;
64351;SDS011;50680;52.626;-8.668;2023-12-20T21:27:11;21.30;;;6.38;;
64351;SDS011;50680;52.626;-8.668;2023-12-20T21:29:38;17.60;;;5.85;;
64351;SDS011;50680;52.626;-8.668;2023-12-20T21:32:05;20.52;;;5.32;;
64351;SDS011;50680;52.626;-8.668;2023-12-20T21:34:32;21.83;;;5.57;;
64351;SDS011;50680;52.626;-8.668;2023-12-20T21:36:59;20.88;;;5.68;;
64351;SDS011;50680;52.626;-8.668;2023-12-20T21:39:26;22.23;;;5.05;;
64351;SDS011;50680;52.626;-8.668;2023-12-20T21:41:55;20.83;;;5.88;;
64351;SDS011;50680;52.626;-8.668;2023-12-20T21:44:22;18.73;;;5.30;;
64351;SDS011;50680;52.626;-8.668;2023-12-20T21:46:49;24.08;;;5.95;;
64351;SDS011;50680;52.626;-8.668;2023-12-20T21:49:16;21.70;;;5.05;;
64351;SDS011;50680;52.626;-8.668;2023-12-20T21:51:43;22.50;;;5.70;;
64351;SDS011;50680;52.626;-8.668;2023-12-20T21:54:10;18.70;;;4.90;;
64351;SDS011;50680;52.626;-8.668;2023-12-20T21:56:40;17.02;;;4.47;;
64351;SDS011;50680;52.626;-8.668;2023-12-20T21:59:07;16.05;;;3.97;;
64351;SDS011;50680;52.626;-8.668;2023-12-20T22:01:35;17.58;;;4.93;;
64351;SDS011;50680;52.626;-8.668;2023-12-20T22:04:07;21.60;;;5.00;;
64351;SDS011;50680;52.626;-8.668;2023-12-20T22:06:34;20.13;;;4.88;;
64351;SDS011;50680;52.626;-8.668;2023-12-20T22:09:01;21.58;;;5.43;;
64351;SDS011;50680;52.626;-8.668;2023-12-20T22:11:29;24.27;;;6.50;;
64351;SDS011;50680;52.626;-8.668;2023-12-20T22:13:56;24.90;;;6.30;;
64351;SDS011;50680;52.626;-8.668;2023-12-20T22:16:23;29.90;;;7.03;;
64351;SDS011;50680;52.626;-8.668;2023-12-20T22:18:50;26.60;;;6.65;;
64351;SDS011;50680;52.626;-8.668;2023-12-20T22:21:18;24.30;;;6.07;;
64351;SDS011;50680;52.626;-8.668;2023-12-20T22:23:45;27.77;;;6.60;;
64351;SDS011;50680;52.626;-8.668;2023-12-20T22:26:12;24.05;;;6.35;;
64351;SDS011;50680;52.626;-8.668;2023-12-20T22:28:39;29.83;;;7.35;;
64351;SDS011;50680;52.626;-8.668;2023-12-20T22:31:07;20.67;;;6.13;;
64351;SDS011;50680;52.626;-8.668;2023-12-20T22:33:34;23.35;;;6.20;;
64351;SDS011;50680;52.626;-8.668;2023-12-20T22:36:01;22.63;;;5.65;;
64351;SDS011;50680;52.626;-8.668;2023-12-20T22:38:28;24.23;;;6.78;;
64351;SDS011;50680;52.626;-8.668;2023-12-20T22:40:57;25.58;;;5.80;;
64351;SDS011;50680;52.626;-8.668;2023-12-20T22:43:24;24.52;;;7.18;;
64351;SDS011;50680;52.626;-8.668;2023-12-20T22:45:51;24.60;;;6.15;;
64351;SDS011;50680;52.626;-8.668;2023-12-20T22:48:19;28.48;;;6.82;;
64351;SDS011;50680;52.626;-8.668;2023-12-20T22:50:46;30.70;;;7.00;;
64351;SDS011;50680;52.626;-8.668;2023-12-20T22:53:13;22.23;;;6.50;;
64351;SDS011;50680;52.626;-8.668;2023-12-20T22:55:40;35.13;;;7.38;;
64351;SDS011;50680;52.626;-8.668;2023-12-20T22:58:07;26.65;;;7.10;;
64351;SDS011;50680;52.626;-8.668;2023-12-20T23:00:34;23.70;;;5.90;;
64351;SDS011;50680;52.626;-8.668;2023-12-20T23:03:01;24.77;;;6.28;;
64351;SDS011;50680;52.626;-8.668;2023-12-20T23:05:29;26.35;;;6.47;;
64351;SDS011;50680;52.626;-8.668;2023-12-20T23:07:55;29.38;;;6.47;;
64351;SDS011;50680;52.626;-8.668;2023-12-20T23:10:23;28.48;;;6.55;;
64351;SDS011;50680;52.626;-8.668;2023-12-20T23:12:56;27.23;;;7.53;;
64351;SDS011;50680;52.626;-8.668;2023-12-20T23:15:23;34.25;;;7.70;;
64351;SDS011;50680;52.626;-8.668;2023-12-20T23:17:50;25.15;;;6.10;;
64351;SDS011;50680;52.626;-8.668;2023-12-20T23:20:19;32.15;;;7.90;;
64351;SDS011;50680;52.626;-8.668;2023-12-20T23:22:46;28.65;;;6.72;;
64351;SDS011;50680;52.626;-8.668;2023-12-20T23:25:13;30.23;;;7.45;;
64351;SDS011;50680;52.626;-8.668;2023-12-20T23:27:41;24.33;;;5.93;;
64351;SDS011;50680;52.626;-8.668;2023-12-20T23:30:09;27.95;;;5.93;;
64351;SDS011;50680;52.626;-8.668;2023-12-20T23:32:37;27.00;;;6.85;;
64351;SDS011;50680;52.626;-8.668;2023-12-20T23:35:04;30.40;;;6.82;;
64351;SDS011;50680;52.626;-8.668;2023-12-20T23:37:41;31.55;;;7.15;;
64351;SDS011;50680;52.626;-8.668;2023-12-20T23:40:11;38.88;;;8.50;;
64351;SDS011;50680;52.626;-8.668;2023-12-20T23:42:40;36.90;;;9.00;;
64351;SDS011;50680;52.626;-8.668;2023-12-20T23:45:07;37.55;;;8.90;;
64351;SDS011;50680;52.626;-8.668;2023-12-20T23:47:50;40.10;;;9.63;;
64351;SDS011;50680;52.626;-8.668;2023-12-20T23:50:19;46.25;;;10.20;;
64351;SDS011;50680;52.626;-8.668;2023-12-20T23:52:48;48.85;;;9.35;;
64351;SDS011;50680;52.626;-8.668;2023-12-20T23:55:16;49.05;;;10.40;;
64351;SDS011;50680;52.626;-8.668;2023-12-20T23:57:44;46.15;;;10.10;;
